Time;durP1;ratioP1;P1;durP2;ratioP2;P2;SDS_P1;SDS_P2;PMS_P1;PMS_P2;Temp;Humidity;BMP_temperature;BMP_pressure;BME280_temperature;BME280_humidity;BME280_pressure;Samples;Min_cycle;Max_cycle;Signal;HPM_P1;HPM_P2
2023/04/01 00:58:51;;;;;;;16.52;7.03;;;;;;;9.77;100.00;98886.16;6160756;22;1491837;-53
2023/04/01 01:01:23;;;;;;;4.85;1.70;;;;;;;9.60;100.00;98886.47;6274236;22;20089;-57
2023/04/01 01:03:50;;;;;;;4.75;1.40;;;;;;;9.59;100.00;98878.72;6249098;22;20031;-51
2023/04/01 01:06:38;;;;;;;6.32;1.38;;;;;;;9.58;100.00;98871.75;6275892;22;20019;-52
2023/04/01 01:12:35;;;;;;;19.60;6.60;;;;;;;9.59;100.00;98876.06;5121048;27;20357;-50
2023/04/01 01:18:21;;;;;;;8.63;2.42;;;;;;;9.57;100.00;98876.25;5108211;27;20391;-52
2023/04/01 01:21:21;;;;;;;7.95;1.50;;;;;;;9.61;100.00;98874.03;5093984;28;20063;-51
2023/04/01 01:24:28;;;;;;;10.90;3.22;;;;;;;9.57;100.00;98876.25;5084206;28;20446;-49
2023/04/01 01:27:05;;;;;;;24.90;9.40;;;;;;;9.53;100.00;98877.66;5110128;28;20048;-52
2023/04/01 01:30:12;;;;;;;74.97;42.63;;;;;;;9.64;100.00;98881.59;5082954;28;20130;-52
2023/04/01 01:32:58;;;;;;;12.80;3.22;;;;;;;9.58;100.00;98867.28;5094862;28;20412;-52
2023/04/01 01:35:31;;;;;;;89.85;37.45;;;;;;;9.53;100.00;98869.72;5092196;28;20139;-49
2023/04/01 01:38:02;;;;;;;5.07;1.30;;;;;;;9.48;100.00;98871.28;5104998;28;20085;-50
2023/04/01 01:40:33;;;;;;;4.93;1.50;;;;;;;9.51;100.00;98877.00;5089696;28;20041;-50
2023/04/01 01:43:05;;;;;;;22.83;7.85;;;;;;;9.51;100.00;98871.72;5082920;28;20084;-52
2023/04/01 01:45:36;;;;;;;9.75;2.60;;;;;;;9.58;100.00;98863.81;5086602;28;20046;-49
2023/04/01 01:48:06;;;;;;;33.45;16.40;;;;;;;9.69;100.00;98873.06;5099428;28;20044;-50
2023/04/01 01:50:33;;;;;;;76.22;31.63;;;;;;;9.74;100.00;98868.00;5107620;28;20049;-53
2023/04/01 01:53:04;;;;;;;38.30;16.45;;;;;;;9.86;100.00;98868.25;5105468;28;20123;-51
2023/04/01 01:55:36;;;;;;;11.73;4.47;;;;;;;9.70;100.00;98864.94;5099559;28;20044;-55
2023/04/01 01:58:09;;;;;;;8.07;1.50;;;;;;;9.61;100.00;98872.19;5098256;28;20044;-47
2023/04/01 02:00:40;;;;;;;5.25;1.48;;;;;;;9.56;100.00;98863.19;5082383;28;20693;-53
2023/04/01 02:03:08;;;;;;;5.80;1.60;;;;;;;9.58;100.00;98866.47;5103939;28;20044;-49
2023/04/01 02:05:35;;;;;;;7.03;2.10;;;;;;;9.39;100.00;98870.63;5101082;28;20054;-51
2023/04/01 02:08:16;;;;;;;7.95;1.92;;;;;;;9.48;100.00;98865.97;5099167;28;20138;-50
2023/04/01 02:10:52;;;;;;;6.78;2.42;;;;;;;9.52;100.00;98861.97;5097915;28;20921;-55
2023/04/01 02:13:31;;;;;;;9.57;2.88;;;;;;;9.39;100.00;98858.19;5075650;28;20512;-53
2023/04/01 02:16:01;;;;;;;10.88;3.08;;;;;;;9.15;100.00;98866.53;5087351;28;20083;-50
2023/04/01 02:18:29;;;;;;;8.23;2.42;;;;;;;9.15;100.00;98859.44;5109011;28;20105;-50
2023/04/01 02:20:59;;;;;;;9.88;3.17;;;;;;;9.15;100.00;98862.09;5089462;28;20097;-51
2023/04/01 02:23:27;;;;;;;11.68;4.13;;;;;;;9.36;100.00;98863.88;5066595;28;20448;-54
2023/04/01 02:25:54;;;;;;;17.75;6.78;;;;;;;9.54;100.00;98863.38;5086920;28;20079;-52
2023/04/01 02:28:23;;;;;;;6.90;1.63;;;;;;;9.67;100.00;98867.16;5087216;28;20036;-51
2023/04/01 02:30:51;;;;;;;8.93;2.58;;;;;;;9.81;100.00;98866.22;5083285;28;20045;-53
2023/04/01 02:33:19;;;;;;;16.75;5.15;;;;;;;9.78;100.00;98869.25;5085440;28;20446;-51
2023/04/01 02:35:46;;;;;;;14.90;5.20;;;;;;;9.69;100.00;98855.34;5087918;28;20049;-58
2023/04/01 02:38:15;;;;;;;9.63;2.70;;;;;;;9.75;100.00;98869.63;5085629;28;20048;-50
2023/04/01 02:40:46;;;;;;;5.47;1.55;;;;;;;9.86;100.00;98860.31;5085161;28;20045;-47
2023/04/01 02:43:13;;;;;;;34.22;13.18;;;;;;;9.67;100.00;98867.94;5091608;28;20055;-55
2023/04/01 02:45:40;;;;;;;15.25;5.28;;;;;;;9.52;100.00;98867.25;5085808;28;20090;-56
2023/04/01 02:48:07;;;;;;;7.03;1.40;;;;;;;9.48;100.00;98873.91;5085356;28;20531;-56
2023/04/01 02:50:34;;;;;;;11.27;3.63;;;;;;;9.49;100.00;98867.63;5075105;28;20049;-51
2023/04/01 02:53:03;;;;;;;16.90;4.20;;;;;;;9.45;100.00;98869.03;5085843;28;20492;-57
2023/04/01 02:55:30;;;;;;;5.82;1.50;;;;;;;9.36;100.00;98879.75;5089613;28;20040;-53
2023/04/01 02:57:57;;;;;;;20.02;7.53;;;;;;;9.32;100.00;98880.34;5081226;28;20403;-56
2023/04/01 03:00:25;;;;;;;19.55;5.90;;;;;;;9.46;100.00;98875.94;5065588;28;20128;-54
2023/04/01 03:02:52;;;;;;;8.07;2.25;;;;;;;9.37;100.00;98880.59;5086518;28;20492;-57
2023/04/01 03:05:20;;;;;;;12.57;3.25;;;;;;;9.37;100.00;98884.03;5061810;28;20064;-51
2023/04/01 03:07:47;;;;;;;4.70;1.15;;;;;;;9.37;100.00;98883.22;5093570;28;20139;-52
2023/04/01 03:10:14;;;;;;;3.08;1.20;;;;;;;9.49;100.00;98886.97;5095196;28;20071;-49
2023/04/01 03:12:41;;;;;;;4.25;1.00;;;;;;;9.39;100.00;98881.22;5093972;28;20040;-49
2023/04/01 03:15:11;;;;;;;14.93;3.53;;;;;;;9.48;100.00;98887.16;5084585;28;20124;-57
2023/04/01 03:17:39;;;;;;;42.13;15.85;;;;;;;9.45;100.00;98890.19;5093773;28;20130;-50
2023/04/01 03:20:08;;;;;;;6.30;1.77;;;;;;;9.18;100.00;98893.44;5084599;28;20451;-56
2023/04/01 03:22:35;;;;;;;7.78;2.40;;;;;;;9.35;100.00;98890.50;5090159;28;20119;-52
2023/04/01 03:25:04;;;;;;;3.70;1.10;;;;;;;9.23;100.00;98892.88;5093786;28;20447;-52
2023/04/01 03:27:31;;;;;;;4.70;1.02;;;;;;;9.29;100.00;98893.94;5091037;28;20028;-53
2023/04/01 03:29:58;;;;;;;4.80;1.40;;;;;;;9.20;100.00;98898.53;5077815;28;20110;-51
2023/04/01 03:32:27;;;;;;;4.25;1.08;;;;;;;9.08;100.00;98895.59;5090094;28;20059;-52
2023/04/01 03:34:53;;;;;;;8.18;1.17;;;;;;;9.14;100.00;98888.72;5092665;28;20044;-53
2023/04/01 03:37:20;;;;;;;5.10;1.25;;;;;;;9.09;100.00;98896.41;5074502;28;20045;-54
2023/04/01 03:39:47;;;;;;;5.60;1.60;;;;;;;9.12;100.00;98896.84;5073735;28;20036;-54
2023/04/01 03:42:14;;;;;;;4.05;1.20;;;;;;;9.05;100.00;98898.59;5074519;28;20064;-53
2023/04/01 03:44:41;;;;;;;3.88;1.30;;;;;;;9.08;100.00;98905.34;5074434;28;20040;-54
2023/04/01 03:47:09;;;;;;;2.72;0.90;;;;;;;9.03;100.00;98903.28;5074430;28;20044;-54
2023/04/01 03:49:36;;;;;;;4.82;1.13;;;;;;;9.07;100.00;98903.72;5093895;28;20052;-53
2023/04/01 03:52:03;;;;;;;4.07;1.35;;;;;;;9.03;100.00;98904.09;5094769;28;20496;-55
2023/04/01 03:54:29;;;;;;;6.03;1.27;;;;;;;9.10;100.00;98901.50;5094728;28;20089;-55
2023/04/01 03:56:57;;;;;;;2.53;1.13;;;;;;;9.01;100.00;98902.66;5094579;28;20048;-55
2023/04/01 03:59:24;;;;;;;3.17;1.10;;;;;;;8.95;100.00;98903.38;5084931;28;20044;-55
2023/04/01 04:01:51;;;;;;;6.57;1.30;;;;;;;9.02;100.00;98904.25;5073151;28;20036;-55
2023/04/01 04:04:17;;;;;;;2.05;0.95;;;;;;;9.02;100.00;98906.91;5074552;28;20052;-53
2023/04/01 04:06:45;;;;;;;4.72;1.42;;;;;;;9.09;100.00;98905.16;5074206;28;20040;-52
2023/04/01 04:09:12;;;;;;;6.32;1.30;;;;;;;9.10;100.00;98906.00;5073059;28;20040;-51
2023/04/01 04:11:39;;;;;;;3.47;1.27;;;;;;;8.99;100.00;98902.03;5074270;28;20045;-50
2023/04/01 04:14:05;;;;;;;4.50;1.40;;;;;;;8.98;100.00;98903.00;5087518;28;20082;-54
2023/04/01 04:16:36;;;;;;;8.02;1.40;;;;;;;9.03;100.00;98911.22;5093896;28;20443;-53
2023/04/01 04:19:04;;;;;;;4.75;1.17;;;;;;;8.99;100.00;98904.66;5094413;28;20044;-55
2023/04/01 04:21:31;;;;;;;5.07;1.40;;;;;;;8.98;100.00;98905.66;5094479;28;20592;-54
2023/04/01 04:23:59;;;;;;;2.92;1.50;;;;;;;9.04;100.00;98907.56;5091980;28;20044;-55
2023/04/01 04:26:28;;;;;;;3.30;1.13;;;;;;;9.00;100.00;98903.63;5094357;28;20048;-53
2023/04/01 04:28:58;;;;;;;2.70;1.13;;;;;;;8.98;100.00;98909.13;5094347;28;20105;-53
2023/04/01 04:31:26;;;;;;;5.25;1.40;;;;;;;9.06;100.00;98916.13;5093310;28;20052;-55
2023/04/01 04:33:55;;;;;;;3.10;1.25;;;;;;;9.01;100.00;98913.22;5093777;28;20408;-55
2023/04/01 04:36:22;;;;;;;4.63;1.27;;;;;;;8.98;100.00;98914.41;5094046;28;20131;-56
2023/04/01 04:38:50;;;;;;;3.92;1.40;;;;;;;8.94;100.00;98912.34;5094107;28;20048;-54
2023/04/01 04:41:18;;;;;;;2.28;1.10;;;;;;;8.94;100.00;98928.22;5094062;28;20048;-54
2023/04/01 04:43:52;;;;;;;2.80;1.33;;;;;;;8.98;100.00;98911.75;5094095;28;20059;-54
2023/04/01 04:46:20;;;;;;;5.72;1.20;;;;;;;8.98;100.00;98913.59;5092945;28;20097;-53
2023/04/01 04:48:49;;;;;;;7.18;1.38;;;;;;;9.00;100.00;98916.88;5091293;28;20106;-53
2023/04/01 04:51:18;;;;;;;5.00;1.40;;;;;;;8.91;100.00;98920.63;5093363;28;20408;-53
2023/04/01 04:53:45;;;;;;;4.38;1.60;;;;;;;8.97;100.00;98914.63;5085868;28;20106;-50
2023/04/01 04:56:12;;;;;;;4.00;1.70;;;;;;;8.95;100.00;98928.03;5073706;28;20055;-53
2023/04/01 04:58:47;;;;;;;5.30;2.10;;;;;;;9.03;100.00;98922.59;5073483;28;20044;-54
2023/04/01 05:01:18;;;;;;;3.83;1.37;;;;;;;8.95;100.00;98930.66;5073075;28;20128;-54
2023/04/01 05:03:45;;;;;;;3.88;1.42;;;;;;;9.05;100.00;98926.88;5081241;28;20298;-54
2023/04/01 05:06:14;;;;;;;3.08;1.50;;;;;;;9.02;100.00;98936.00;5093761;28;20051;-53
2023/04/01 05:08:44;;;;;;;4.20;1.42;;;;;;;8.98;100.00;98932.91;5093716;28;20040;-54
2023/04/01 05:11:15;;;;;;;3.33;1.45;;;;;;;8.93;100.00;98932.69;5093346;28;20036;-54
2023/04/01 05:13:44;;;;;;;4.07;1.60;;;;;;;8.88;100.00;98942.16;5092541;28;20437;-52
2023/04/01 05:16:14;;;;;;;5.43;2.17;;;;;;;8.95;100.00;98937.75;5092967;28;20074;-54
2023/04/01 05:18:41;;;;;;;6.78;2.03;;;;;;;8.90;100.00;98948.09;5093612;28;20052;-53
2023/04/01 05:21:10;;;;;;;4.93;1.80;;;;;;;8.95;100.00;98945.69;5093512;28;20098;-53
2023/04/01 05:23:37;;;;;;;8.02;1.90;;;;;;;8.91;100.00;98937.31;5093397;28;20492;-54
2023/04/01 05:26:06;;;;;;;7.15;2.17;;;;;;;8.97;100.00;98944.53;5093327;28;20377;-53
2023/04/01 05:28:33;;;;;;;4.80;2.38;;;;;;;9.07;100.00;98944.19;5092470;28;20029;-53
2023/04/01 05:31:00;;;;;;;5.32;2.10;;;;;;;8.96;100.00;98948.16;5093366;28;20043;-54
2023/04/01 05:33:33;;;;;;;5.80;2.25;;;;;;;8.98;100.00;98950.63;5093399;28;20052;-55
2023/04/01 05:36:10;;;;;;;10.25;2.20;;;;;;;8.93;100.00;98953.00;5090592;28;20046;-55
2023/04/01 05:38:38;;;;;;;5.43;2.00;;;;;;;8.98;100.00;98946.13;5093405;28;20435;-54
2023/04/01 05:41:07;;;;;;;6.40;2.33;;;;;;;8.98;100.00;98947.97;5093364;28;20066;-53
2023/04/01 05:43:39;;;;;;;8.75;2.67;;;;;;;9.00;100.00;98959.19;5091311;28;20485;-55
2023/04/01 05:46:25;;;;;;;6.00;2.28;;;;;;;9.03;100.00;98961.47;5092906;28;20523;-53
2023/04/01 05:48:58;;;;;;;9.35;3.03;;;;;;;8.98;100.00;98956.72;5093292;28;20044;-51
2023/04/01 05:51:26;;;;;;;11.27;3.00;;;;;;;9.00;100.00;98960.03;5076931;28;20051;-53
2023/04/01 05:53:53;;;;;;;8.75;2.90;;;;;;;8.95;100.00;98959.75;5071718;28;20056;-55
2023/04/01 05:56:19;;;;;;;8.90;2.72;;;;;;;8.93;100.00;98961.78;5072823;28;20078;-56
2023/04/01 05:58:52;;;;;;;7.53;2.80;;;;;;;8.98;100.00;98962.00;5080355;28;20044;-52
2023/04/01 06:01:21;;;;;;;6.80;2.88;;;;;;;8.97;100.00;98970.97;5091244;28;20524;-53
2023/04/01 06:03:48;;;;;;;6.80;2.85;;;;;;;8.98;100.00;98969.13;5095116;28;20094;-52
2023/04/01 06:06:23;;;;;;;7.43;3.08;;;;;;;8.91;100.00;98958.47;5097050;28;20493;-49
2023/04/01 06:08:53;;;;;;;8.02;3.15;;;;;;;8.88;100.00;98973.88;5097037;28;20047;-49
2023/04/01 06:11:46;;;;;;;8.40;3.50;;;;;;;8.87;100.00;98973.06;5096780;28;20073;-52
2023/04/01 06:17:37;;;;;;;9.32;3.63;;;;;;;8.98;100.00;98980.53;5151560;27;20361;-49
2023/04/01 06:20:34;;;;;;;10.48;3.72;;;;;;;8.92;100.00;98978.63;5131533;28;20092;-52
2023/04/01 06:23:30;;;;;;;12.02;4.18;;;;;;;8.98;100.00;98979.72;5131375;28;20130;-52
2023/04/01 06:26:37;;;;;;;7.75;3.67;;;;;;;9.02;100.00;98980.97;5129928;28;20039;-49
2023/04/01 06:29:26;;;;;;;8.52;3.95;;;;;;;9.04;100.00;98989.56;5131282;28;20035;-52
2023/04/01 06:32:15;;;;;;;8.68;3.97;;;;;;;9.10;100.00;98988.00;5131720;28;20046;-51
2023/04/01 06:35:17;;;;;;;8.00;3.33;;;;;;;8.95;100.00;98993.28;5131279;28;20047;-49
2023/04/01 06:37:59;;;;;;;9.30;3.70;;;;;;;8.86;100.00;98991.78;5131356;28;20043;-51
2023/04/01 06:40:57;;;;;;;9.75;3.80;;;;;;;8.81;100.00;98987.88;5131512;28;20479;-50
2023/04/01 06:43:54;;;;;;;7.38;3.28;;;;;;;8.99;100.00;98989.28;5130838;28;20051;-51
2023/04/01 06:46:57;;;;;;;8.77;4.25;;;;;;;9.02;100.00;98995.03;5130550;28;20061;-51
2023/04/01 06:50:23;;;;;;;8.85;3.50;;;;;;;9.00;100.00;99002.34;5129067;28;20039;-52
2023/04/01 06:53:50;;;;;;;9.73;4.07;;;;;;;9.08;100.00;98998.75;5128052;28;20039;-52
2023/04/01 06:56:38;;;;;;;9.70;3.33;;;;;;;9.03;100.00;99001.94;5130193;28;20469;-47
2023/04/01 06:59:17;;;;;;;6.90;3.22;;;;;;;9.09;100.00;99002.22;5131013;28;20131;-52
2023/04/01 07:01:49;;;;;;;8.70;3.25;;;;;;;9.09;100.00;99005.66;5130318;28;20178;-50
2023/04/01 07:04:23;;;;;;;7.03;3.22;;;;;;;9.09;100.00;99007.50;5130522;28;20434;-51
2023/04/01 07:06:59;;;;;;;7.60;3.00;;;;;;;9.09;100.00;99010.97;5120856;28;20525;-50
2023/04/01 07:09:34;;;;;;;7.57;3.25;;;;;;;9.06;100.00;99013.16;5130594;28;20047;-49
2023/04/01 07:15:18;;;;;;;8.07;3.30;;;;;;;8.91;100.00;99014.00;5070422;28;20886;-49
2023/04/01 07:17:50;;;;;;;7.80;2.97;;;;;;;8.92;100.00;99015.66;5070720;28;20121;-52
2023/04/01 07:20:27;;;;;;;7.97;3.40;;;;;;;8.92;100.00;99015.66;5070066;28;20402;-48
2023/04/01 07:22:57;;;;;;;8.00;3.70;;;;;;;8.94;100.00;99013.66;5070734;28;20056;-51
2023/04/01 07:25:35;;;;;;;10.73;3.60;;;;;;;8.93;100.00;99027.88;5058099;28;20405;-49
2023/04/01 07:28:22;;;;;;;8.48;3.55;;;;;;;8.97;100.00;99030.97;5050379;28;20053;-48
2023/04/01 07:31:31;;;;;;;9.55;3.78;;;;;;;9.03;100.00;99032.88;5059752;28;20045;-49
2023/04/01 07:34:17;;;;;;;8.10;3.50;;;;;;;9.15;100.00;99047.25;5068661;28;20409;-50
2023/04/01 07:36:54;;;;;;;7.88;3.50;;;;;;;9.12;100.00;99057.41;5071344;28;20087;-49
2023/04/01 07:39:52;;;;;;;9.23;3.75;;;;;;;9.15;100.00;99044.63;5074188;28;20045;-53
2023/04/01 07:43:11;;;;;;;9.43;3.67;;;;;;;9.13;100.00;99045.78;5054393;28;20036;-52
2023/04/01 07:46:05;;;;;;;8.43;3.90;;;;;;;9.06;100.00;99055.47;5068135;28;20041;-51
2023/04/01 07:49:00;;;;;;;10.77;4.22;;;;;;;9.06;100.00;99058.97;5050213;28;20045;-52
2023/04/01 07:51:46;;;;;;;8.02;3.30;;;;;;;9.03;100.00;99061.97;5065721;28;20473;-52
2023/04/01 07:54:53;;;;;;;8.35;3.40;;;;;;;8.91;100.00;99066.91;5063279;28;20397;-51
2023/04/01 07:57:26;;;;;;;9.10;3.83;;;;;;;8.90;100.00;99061.81;5049399;28;20132;-51
2023/04/01 08:00:07;;;;;;;10.40;3.40;;;;;;;8.94;100.00;99076.31;5053213;28;20546;-53
2023/04/01 08:03:04;;;;;;;7.53;3.70;;;;;;;8.92;100.00;99076.47;5068930;28;20048;-54
2023/04/01 08:08:53;;;;;;;10.38;3.70;;;;;;;9.12;100.00;99081.22;5090660;28;20736;-56
2023/04/01 08:12:20;;;;;;;173.10;76.30;;;;;;;9.06;100.00;99085.41;5090340;28;20078;-49
2023/04/01 08:15:28;;;;;;;9.30;4.10;;;;;;;9.14;100.00;99095.06;5089709;28;20076;-50
2023/04/01 08:18:32;;;;;;;8.50;3.85;;;;;;;9.14;100.00;99095.06;5090355;28;20050;-50
2023/04/01 08:21:01;;;;;;;9.38;3.75;;;;;;;9.08;100.00;99101.91;5090584;28;20044;-51
2023/04/01 08:23:33;;;;;;;8.68;3.60;;;;;;;9.09;100.00;99105.38;5090246;28;20051;-50
2023/04/01 08:26:41;;;;;;;10.55;3.63;;;;;;;9.09;100.00;99118.59;5090701;28;20071;-51
2023/04/01 08:29:35;;;;;;;8.77;3.47;;;;;;;8.95;100.00;99110.50;5090288;28;20044;-49
2023/04/01 08:32:11;;;;;;;9.63;4.90;;;;;;;9.12;100.00;99115.59;5077166;28;20048;-55
2023/04/01 08:34:42;;;;;;;8.32;3.67;;;;;;;9.10;100.00;99122.91;5070310;28;20055;-55
2023/04/01 08:37:23;;;;;;;16.67;5.32;;;;;;;9.10;100.00;99115.78;5082928;28;20075;-55
2023/04/01 08:39:58;;;;;;;13.02;3.70;;;;;;;9.10;100.00;99118.44;5083408;28;20119;-58
2023/04/01 08:42:53;;;;;;;8.90;3.90;;;;;;;9.15;100.00;99131.09;5072612;28;20070;-58
2023/04/01 08:45:42;;;;;;;53.30;30.30;;;;;;;9.12;100.00;99124.34;5081798;28;20490;-55
2023/04/01 08:48:49;;;;;;;19.95;8.98;;;;;;;9.27;100.00;99131.44;5071639;28;20075;-57
2023/04/01 08:51:42;;;;;;;29.73;11.88;;;;;;;9.29;100.00;99132.09;5067632;28;20041;-56
2023/04/01 08:54:44;;;;;;;13.05;5.28;;;;;;;9.27;100.00;99128.81;5081742;28;20131;-55
2023/04/01 08:57:54;;;;;;;13.15;5.57;;;;;;;9.35;100.00;99141.91;5083446;28;20044;-50
2023/04/01 09:01:05;;;;;;;12.75;6.32;;;;;;;9.38;100.00;99146.84;5069057;28;20069;-59
2023/04/01 09:04:15;;;;;;;20.33;8.98;;;;;;;9.30;100.00;99149.63;5075596;28;20055;-56
2023/04/01 09:10:05;;;;;;;11.95;6.38;;;;;;;9.33;100.00;99159.81;5093194;27;20406;-59
2023/04/01 09:12:48;;;;;;;13.55;6.72;;;;;;;9.32;100.00;99152.88;5088544;28;20036;-57
2023/04/01 09:15:30;;;;;;;10.43;5.55;;;;;;;9.26;100.00;99165.03;5088670;28;20048;-58
2023/04/01 09:18:32;;;;;;;11.35;6.03;;;;;;;9.09;100.00;99161.75;5090692;28;20040;-57
2023/04/01 09:24:18;;;;;;;9.50;5.20;;;;;;;9.05;100.00;99175.53;5092307;27;20386;-57
2023/04/01 09:27:23;;;;;;;13.02;6.50;;;;;;;9.14;100.00;99177.88;5089556;28;20058;-57
2023/04/01 09:33:27;;;;;;;12.13;6.13;;;;;;;9.09;100.00;99179.44;5109375;27;20885;-57
2023/04/01 09:36:07;;;;;;;13.02;6.85;;;;;;;9.07;100.00;99192.03;5102277;28;20377;-57
2023/04/01 09:38:53;;;;;;;16.73;7.95;;;;;;;9.08;100.00;99185.72;5087203;28;20036;-53
2023/04/01 09:41:52;;;;;;;12.85;7.47;;;;;;;9.02;100.00;99203.16;5097687;28;20511;-57
2023/04/01 09:44:35;;;;;;;13.38;7.18;;;;;;;9.07;100.00;99198.13;5076259;28;20105;-49
2023/04/01 09:47:33;;;;;;;15.95;8.57;;;;;;;9.08;100.00;99197.16;5087471;28;20052;-57
2023/04/01 09:50:32;;;;;;;19.45;9.25;;;;;;;9.10;100.00;99196.97;5096716;28;20076;-57
2023/04/01 09:53:39;;;;;;;17.98;9.73;;;;;;;9.08;100.00;99205.09;5099559;28;20040;-58
2023/04/01 09:56:46;;;;;;;18.50;10.60;;;;;;;9.26;100.00;99207.38;5107331;28;20060;-48
2023/04/01 09:59:54;;;;;;;19.02;9.50;;;;;;;9.29;100.00;99208.81;5090185;28;20048;-48
2023/04/01 10:03:20;;;;;;;18.40;9.57;;;;;;;9.25;100.00;99210.19;5093560;28;20039;-50
2023/04/01 10:11:47;;;;;;;18.50;10.50;;;;;;;9.28;100.00;99223.88;5086142;27;20386;-56
2023/04/01 10:14:37;;;;;;;19.00;9.57;;;;;;;9.37;100.00;99225.44;5101255;28;20050;-53
2023/04/01 10:17:40;;;;;;;15.63;8.95;;;;;;;9.45;100.00;99223.69;5100615;28;20044;-53
2023/04/01 10:20:48;;;;;;;15.65;9.35;;;;;;;9.48;100.00;99232.09;5093793;28;20075;-53
2023/04/01 10:23:27;;;;;;;14.82;8.82;;;;;;;9.47;100.00;99225.13;5107029;28;20134;-54
2023/04/01 10:29:28;;;;;;;15.00;7.47;;;;;;;9.44;100.00;99241.41;5105233;27;20413;-55
2023/04/01 10:32:29;;;;;;;13.88;7.30;;;;;;;9.57;100.00;99241.56;5074980;28;20036;-55
2023/04/01 10:35:35;;;;;;;11.57;5.50;;;;;;;9.51;100.00;99241.47;5091539;28;20045;-54
2023/04/01 10:38:37;;;;;;;8.45;4.78;;;;;;;9.46;100.00;99238.56;5076604;28;20045;-53
2023/04/01 10:41:38;;;;;;;9.93;5.60;;;;;;;9.54;100.00;99236.63;5090703;28;20074;-51
2023/04/01 10:45:04;;;;;;;12.35;6.28;;;;;;;9.56;100.00;99249.69;5092041;28;20040;-48
2023/04/01 10:48:05;;;;;;;9.25;5.05;;;;;;;9.45;100.00;99240.38;5102041;28;20052;-53
2023/04/01 10:51:12;;;;;;;11.13;5.97;;;;;;;9.53;100.00;99244.75;5094814;28;20488;-50
2023/04/01 10:54:17;;;;;;;9.82;5.60;;;;;;;9.66;100.00;99250.25;5099967;28;20054;-49
2023/04/01 10:57:40;;;;;;;14.63;7.97;;;;;;;9.74;100.00;99250.13;5091359;28;20388;-51
2023/04/01 11:01:05;;;;;;;11.38;6.85;;;;;;;9.79;100.00;99247.75;5088942;28;20126;-51
2023/04/01 11:04:31;;;;;;;12.68;7.55;;;;;;;9.64;100.00;99260.19;5080996;28;20048;-47
2023/04/01 11:10:29;;;;;;;17.45;9.43;;;;;;;9.87;100.00;99254.75;5076592;27;20417;-50
2023/04/01 11:16:20;;;;;;;17.77;7.88;;;;;;;9.94;100.00;99268.91;5092971;27;20378;-50
2023/04/01 11:19:27;;;;;;;12.80;7.35;;;;;;;9.81;100.00;99263.47;5102178;28;20116;-56
2023/04/01 11:22:10;;;;;;;12.30;6.93;;;;;;;9.65;100.00;99284.84;5102186;28;20511;-56
2023/04/01 11:30:40;;;;;;;17.13;7.35;;;;;;;9.41;100.00;99284.94;5119108;27;20361;-54
2023/04/01 11:33:19;;;;;;;17.35;8.98;;;;;;;9.44;100.00;99291.69;5101607;28;20048;-54
2023/04/01 11:36:06;;;;;;;17.85;9.05;;;;;;;9.44;100.00;99288.22;5103578;28;20081;-53
2023/04/01 11:39:04;;;;;;;15.93;8.82;;;;;;;9.46;100.00;99289.69;5094637;28;20076;-54
2023/04/01 11:42:17;;;;;;;15.52;9.05;;;;;;;9.46;100.00;99297.63;5084235;28;20035;-55
2023/04/01 11:45:25;;;;;;;;;;;;;;;9.53;100.00;99292.41;5103924;28;20044;-54
2023/04/01 11:51:30;;;;;;;15.90;9.25;;;;;;;9.47;100.00;99312.50;5068086;28;20415;-54
2023/04/01 11:54:13;;;;;;;14.80;8.35;;;;;;;9.40;100.00;99316.88;5058189;28;20120;-54
2023/04/01 12:00:02;;;;;;;20.80;10.32;;;;;;;9.58;100.00;99327.91;5121238;27;20373;-56
2023/04/01 12:03:10;;;;;;;20.58;10.50;;;;;;;9.56;100.00;99326.47;5109743;28;20040;-55
2023/04/01 12:05:54;;;;;;;17.73;8.88;;;;;;;9.55;100.00;99323.00;5091062;28;20032;-54
2023/04/01 12:08:53;;;;;;;18.77;10.57;;;;;;;9.56;100.00;99331.78;5107061;28;20061;-52
2023/04/01 12:11:32;;;;;;;16.42;9.38;;;;;;;9.54;100.00;99333.78;5080249;28;20033;-55
2023/04/01 12:14:19;;;;;;;20.45;11.07;;;;;;;9.53;100.00;99332.13;5099517;28;20047;-55
2023/04/01 12:17:14;;;;;;;19.70;11.02;;;;;;;9.60;100.00;99341.81;5071352;28;20048;-54
2023/04/01 12:19:53;;;;;;;18.30;10.60;;;;;;;9.65;100.00;99348.41;5099312;28;20045;-54
2023/04/01 12:25:07;;;;;;;18.77;10.82;;;;;;;9.59;100.00;99349.94;5124406;27;20379;-54
2023/04/01 12:27:50;;;;;;;14.63;9.02;;;;;;;9.70;100.00;99349.50;5109595;27;20050;-52
2023/04/01 12:30:57;;;;;;;20.42;11.07;;;;;;;10.03;100.00;99358.91;5112605;27;20087;-53
2023/04/01 12:33:54;;;;;;;17.92;10.27;;;;;;;9.68;100.00;99363.91;5108788;28;20048;-50
2023/04/01 12:36:38;;;;;;;20.70;11.00;;;;;;;9.72;100.00;99360.72;5113532;28;20044;-50
2023/04/01 12:39:45;;;;;;;17.38;10.65;;;;;;;9.71;100.00;99368.84;5126686;27;20484;-51
2023/04/01 12:42:52;;;;;;;21.30;11.82;;;;;;;9.73;100.00;99374.78;5094611;28;20051;-50
2023/04/01 12:45:58;;;;;;;24.35;10.38;;;;;;;9.49;100.00;99374.00;5113301;28;20035;-47
2023/04/01 12:48:40;;;;;;;16.92;10.65;;;;;;;9.68;100.00;99377.13;5107183;28;20047;-50
2023/04/01 12:57:19;;;;;;;16.08;9.82;;;;;;;9.66;100.00;99381.78;5111225;27;20852;-52
2023/04/01 13:02:46;;;;;;;15.70;9.55;;;;;;;9.73;100.00;99385.38;5105292;27;20699;-51
2023/04/01 13:05:52;;;;;;;16.02;9.57;;;;;;;9.73;100.00;99388.00;5108029;28;20512;-52
2023/04/01 13:08:59;;;;;;;14.98;9.60;;;;;;;9.79;100.00;99397.91;5093190;28;20040;-51
2023/04/01 13:11:54;;;;;;;16.25;8.80;;;;;;;9.94;100.00;99389.94;5085129;28;20505;-48
2023/04/01 13:14:41;;;;;;;14.40;9.30;;;;;;;9.97;100.00;99400.19;5092544;28;20055;-52
2023/04/01 13:17:20;;;;;;;13.43;8.48;;;;;;;9.99;100.00;99406.13;5100517;28;20039;-51
2023/04/01 13:20:11;;;;;;;14.70;8.10;;;;;;;10.09;100.00;99403.19;5102408;28;20128;-50
2023/04/01 13:23:06;;;;;;;14.77;8.90;;;;;;;10.17;100.00;99403.91;5098234;28;20036;-52
2023/04/01 13:25:40;;;;;;;14.77;8.43;;;;;;;10.23;100.00;99412.16;5093024;28;20067;-52
2023/04/01 13:28:21;;;;;;;14.68;8.80;;;;;;;10.26;100.00;99406.47;5104273;28;20497;-53
2023/04/01 13:31:01;;;;;;;16.40;8.55;;;;;;;10.24;100.00;99409.31;5103644;28;20051;-53
2023/04/01 13:33:45;;;;;;;11.15;7.00;;;;;;;10.14;100.00;99422.81;5114385;28;20102;-52
2023/04/01 13:36:26;;;;;;;13.35;7.65;;;;;;;10.07;100.00;99410.50;5130040;27;20049;-52
2023/04/01 13:41:49;;;;;;;11.90;7.25;;;;;;;10.10;100.00;99420.75;5097486;27;20405;-49
2023/04/01 13:44:23;;;;;;;12.05;7.40;;;;;;;10.09;100.00;99429.69;5111099;28;20132;-48
2023/04/01 13:49:51;;;;;;;12.68;7.63;;;;;;;9.99;100.00;99422.03;5109921;27;20366;-52
2023/04/01 13:52:52;;;;;;;14.75;8.52;;;;;;;10.04;100.00;99427.59;5114197;28;20055;-53
2023/04/01 13:55:50;;;;;;;12.60;8.15;;;;;;;10.07;100.00;99445.75;5130462;27;20047;-51
2023/04/01 13:58:38;;;;;;;12.80;6.82;;;;;;;9.93;100.00;99441.28;5101924;28;20046;-51
2023/04/01 14:01:14;;;;;;;13.75;7.72;;;;;;;9.90;100.00;99439.00;5125929;27;20395;-52
2023/04/01 14:04:12;;;;;;;12.82;7.88;;;;;;;9.89;100.00;99437.34;5108369;28;20047;-52
2023/04/01 14:06:55;;;;;;;14.60;7.40;;;;;;;10.02;100.00;99444.66;5099788;28;20044;-49
2023/04/01 14:09:51;;;;;;;13.65;8.45;;;;;;;10.08;100.00;99449.25;5123776;28;20074;-51
2023/04/01 14:12:42;;;;;;;13.63;8.27;;;;;;;10.11;100.00;99446.22;5096275;28;20039;-49
2023/04/01 14:15:25;;;;;;;15.13;7.32;;;;;;;10.10;100.00;99463.13;5105025;27;20086;-51
2023/04/01 14:26:43;;;;;;;14.18;7.70;;;;;;;10.12;100.00;99459.28;5119175;27;20388;-47
2023/04/01 14:29:30;;;;;;;11.93;7.55;;;;;;;10.07;100.00;99463.50;5103050;28;20507;-52
2023/04/01 14:34:58;;;;;;;12.85;7.28;;;;;;;10.09;100.00;99477.38;5114299;27;20370;-48
2023/04/01 14:37:53;;;;;;;11.57;6.53;;;;;;;10.30;100.00;99474.84;5100209;28;20117;-51
2023/04/01 14:40:57;;;;;;;13.27;6.15;;;;;;;10.34;100.00;99473.47;5101221;28;20040;-49
2023/04/01 14:44:03;;;;;;;10.55;6.57;;;;;;;10.37;100.00;99481.09;5094846;28;20040;-51
2023/04/01 14:47:04;;;;;;;14.57;6.38;;;;;;;10.46;100.00;99476.50;5106373;28;20044;-51
2023/04/01 14:49:42;;;;;;;11.07;6.32;;;;;;;10.50;100.00;99488.38;5095023;28;20066;-52
2023/04/01 14:52:21;;;;;;;11.23;5.60;;;;;;;10.35;100.00;99483.09;5119848;28;20143;-51
2023/04/01 14:54:51;;;;;;;9.57;5.45;;;;;;;10.09;100.00;99490.63;5101992;28;20280;-52
2023/04/01 14:57:28;;;;;;;9.38;5.50;;;;;;;10.09;100.00;99501.22;5107407;28;20056;-52
2023/04/01 15:00:17;;;;;;;9.80;5.15;;;;;;;10.11;100.00;99488.63;5083032;28;20051;-51